createdAt,value
2018-02-07T00:00:29.514Z,44.55
2018-02-07T00:01:32.724Z,42.70
2018-02-07T00:02:35.975Z,36.03
2018-02-07T00:03:39.201Z,38.92
2018-02-07T00:04:42.431Z,40.47
2018-02-07T00:05:45.680Z,37.60
2018-02-07T00:06:48.937Z,41.22
2018-02-07T00:07:52.941Z,38.30
2018-02-07T00:08:56.551Z,35.97
2018-02-07T00:09:59.812Z,35.72
2018-02-07T00:11:03.006Z,38.13
2018-02-07T00:12:06.239Z,37.63
2018-02-07T00:13:09.436Z,36.63
2018-02-07T00:14:13.470Z,40.35
2018-02-07T00:15:16.711Z,40.25
2018-02-07T00:16:20.041Z,34.75
2018-02-07T00:17:23.264Z,36.78
2018-02-07T00:18:26.513Z,37.13
2018-02-07T00:19:29.753Z,34.00
2018-02-07T00:20:32.976Z,38.85
2018-02-07T00:21:36.204Z,36.75
2018-02-07T00:22:39.419Z,35.38
2018-02-07T00:23:43.431Z,36.92
2018-02-07T00:24:46.672Z,37.85
2018-02-07T00:25:49.947Z,34.83
2018-02-07T00:26:53.136Z,36.80
2018-02-07T00:27:56.385Z,34.38
2018-02-07T00:28:59.612Z,35.03
2018-02-07T00:30:02.833Z,36.80
2018-02-07T00:31:06.107Z,37.80
2018-02-07T00:32:09.384Z,34.03
2018-02-07T00:33:12.687Z,38.58
2018-02-07T00:34:15.893Z,34.50
2018-02-07T00:35:19.192Z,35.25
2018-02-07T00:36:22.378Z,35.22
2018-02-07T00:37:25.618Z,36.60
2018-02-07T00:38:28.853Z,39.20
2018-02-07T00:39:32.094Z,36.08
2018-02-07T00:40:35.318Z,36.58
2018-02-07T00:41:38.545Z,34.90
2018-02-07T00:42:41.783Z,38.47
2018-02-07T00:43:44.992Z,39.10
2018-02-07T00:44:48.990Z,35.13
2018-02-07T00:45:52.961Z,38.67
2018-02-07T00:46:56.188Z,34.83
2018-02-07T00:47:59.424Z,40.45
2018-02-07T00:49:02.647Z,36.53
2018-02-07T00:50:06.631Z,36.92
2018-02-07T00:51:10.625Z,35.17
2018-02-07T00:52:13.853Z,39.05
2018-02-07T00:53:17.083Z,36.33
2018-02-07T00:54:20.309Z,35.83
2018-02-07T00:55:23.540Z,39.55
2018-02-07T00:56:26.755Z,36.72
2018-02-07T00:57:30.747Z,41.42
2018-02-07T00:58:34.779Z,39.33
2018-02-07T00:59:38.010Z,39.53
2018-02-07T01:00:41.242Z,37.75
2018-02-07T01:01:44.469Z,39.45
2018-02-07T01:02:47.954Z,38.75
2018-02-07T01:03:51.160Z,39.15
2018-02-07T01:04:54.460Z,36.47
2018-02-07T01:05:57.753Z,36.92
2018-02-07T01:07:00.977Z,39.38
2018-02-07T01:08:04.218Z,40.15
2018-02-07T01:09:08.219Z,37.38
2018-02-07T01:10:11.449Z,37.42
2018-02-07T01:11:14.670Z,35.55
2018-02-07T01:12:18.677Z,35.53
2018-02-07T01:13:22.677Z,36.30
2018-02-07T01:14:26.673Z,36.10
2018-02-07T01:15:30.686Z,37.63
2018-02-07T01:16:34.740Z,41.08
2018-02-07T01:17:37.941Z,42.38
2018-02-07T01:18:41.228Z,38.67
2018-02-07T01:19:44.400Z,40.75
2018-02-07T01:20:47.733Z,36.40
2018-02-07T01:21:50.955Z,39.25
2018-02-07T01:22:54.241Z,40.30
2018-02-07T01:23:57.444Z,37.60
2018-02-07T01:25:00.752Z,39.80
2018-02-07T01:26:04.041Z,42.00
2018-02-07T01:27:08.039Z,38.30
2018-02-07T01:28:11.274Z,39.42
2018-02-07T01:29:14.493Z,43.25
2018-02-07T01:30:18.483Z,39.85
2018-02-07T01:31:22.532Z,45.85
2018-02-07T01:32:25.744Z,43.10
2018-02-07T01:33:28.959Z,38.97
2018-02-07T01:34:32.951Z,42.80
2018-02-07T01:35:36.955Z,39.90
2018-02-07T01:36:40.943Z,47.88
2018-02-07T01:37:44.156Z,42.88
2018-02-07T01:38:47.399Z,43.85
2018-02-07T01:39:50.616Z,40.80
2018-02-07T01:40:53.874Z,41.90
2018-02-07T01:41:57.453Z,40.70
2018-02-07T01:43:00.641Z,42.62
2018-02-07T01:44:03.864Z,40.17
2018-02-07T01:45:07.116Z,44.25
2018-02-07T01:46:10.333Z,43.63
2018-02-07T01:47:13.582Z,38.35
2018-02-07T01:48:17.576Z,40.33
2018-02-07T01:49:20.893Z,42.67
2018-02-07T01:50:24.179Z,37.50
2018-02-07T01:51:28.152Z,44.40
2018-02-07T01:52:31.364Z,43.72
2018-02-07T01:53:34.601Z,41.53
2018-02-07T01:54:37.825Z,43.15
2018-02-07T01:55:41.040Z,41.55
2018-02-07T01:56:44.294Z,38.63
2018-02-07T01:57:47.509Z,41.30
2018-02-07T01:58:50.749Z,38.17
2018-02-07T01:59:53.976Z,39.67
2018-02-07T02:00:57.191Z,36.80
2018-02-07T02:02:00.421Z,41.83
2018-02-07T02:03:03.690Z,43.05
2018-02-07T02:04:06.910Z,38.40
2018-02-07T02:05:10.145Z,41.28
2018-02-07T02:06:13.384Z,40.25
2018-02-07T02:07:16.617Z,39.22
2018-02-07T02:08:20.591Z,41.55
2018-02-07T02:09:23.853Z,38.42
2018-02-07T02:10:27.082Z,37.83
2018-02-07T02:11:31.066Z,36.33
2018-02-07T02:12:35.082Z,43.95
2018-02-07T02:13:38.305Z,38.70
2018-02-07T02:14:41.543Z,42.42
2018-02-07T02:15:45.530Z,35.35
2018-02-07T02:16:49.545Z,42.28
2018-02-07T02:17:52.773Z,41.65
2018-02-07T02:18:55.995Z,39.83
2018-02-07T02:19:59.984Z,42.20
2018-02-07T02:21:03.215Z,41.00
2018-02-07T02:22:06.439Z,41.83
2018-02-07T02:23:09.671Z,42.45
2018-02-07T02:24:12.892Z,37.28
2018-02-07T02:25:16.119Z,39.35
2018-02-07T02:26:20.119Z,38.28
2018-02-07T02:27:24.105Z,38.00
2018-02-07T02:28:27.810Z,43.58
2018-02-07T02:29:31.213Z,40.20
2018-02-07T02:30:35.185Z,43.42
2018-02-07T02:31:38.498Z,39.72
2018-02-07T02:32:41.740Z,39.20
2018-02-07T02:33:44.968Z,40.28
2018-02-07T02:34:48.202Z,37.35
2018-02-07T02:36:03.300Z,38.20
2018-02-07T02:37:07.302Z,43.92
2018-02-07T02:38:11.288Z,37.13
2018-02-07T02:39:15.293Z,41.13
2018-02-07T02:40:19.285Z,39.50
2018-02-07T02:41:22.520Z,40.30
2018-02-07T02:42:25.735Z,44.45
2018-02-07T02:43:28.974Z,40.47
2018-02-07T02:44:32.208Z,43.83
2018-02-07T02:45:35.443Z,43.58
2018-02-07T02:46:38.677Z,41.90
2018-02-07T02:47:41.908Z,41.97
2018-02-07T02:48:45.136Z,39.50
2018-02-07T02:49:48.375Z,35.25
2018-02-07T02:50:51.593Z,38.90
2018-02-07T02:51:54.928Z,41.55
2018-02-07T02:52:58.151Z,41.85
2018-02-07T02:54:01.402Z,40.35
2018-02-07T02:55:04.650Z,42.00
2018-02-07T02:56:07.956Z,42.33
2018-02-07T02:57:11.199Z,42.55
2018-02-07T02:58:14.441Z,39.47
2018-02-07T02:59:17.674Z,44.05
2018-02-07T03:00:20.948Z,41.88
2018-02-07T03:01:24.181Z,43.35
2018-02-07T03:02:27.403Z,43.55
2018-02-07T03:03:30.652Z,43.65
2018-02-07T03:04:33.876Z,42.25
2018-02-07T03:05:37.867Z,45.08
2018-02-07T03:06:41.098Z,45.30
2018-02-07T03:07:44.324Z,41.15
2018-02-07T03:08:47.566Z,43.22
2018-02-07T03:09:50.805Z,40.83
2018-02-07T03:10:54.810Z,47.17
2018-02-07T03:11:58.803Z,49.28
2018-02-07T03:13:02.808Z,43.45
2018-02-07T03:14:06.886Z,39.38
2018-02-07T03:15:10.092Z,44.60
2018-02-07T03:16:14.089Z,41.50
2018-02-07T03:17:17.328Z,43.70
2018-02-07T03:18:20.551Z,43.95
2018-02-07T03:19:23.798Z,46.40
2018-02-07T03:20:27.052Z,44.58
2018-02-07T03:21:30.293Z,45.33
2018-02-07T03:22:33.604Z,45.85
2018-02-07T03:23:37.592Z,45.25
2018-02-07T03:24:41.619Z,48.65
2018-02-07T03:25:44.810Z,48.78
2018-02-07T03:26:48.025Z,50.03
2018-02-07T03:27:51.296Z,53.60
2018-02-07T03:28:54.551Z,48.65
2018-02-07T03:29:57.775Z,52.78
2018-02-07T03:31:01.009Z,54.55
2018-02-07T03:32:05.000Z,55.50
2018-02-07T03:33:08.989Z,51.35
2018-02-07T03:34:12.217Z,50.05
2018-02-07T03:35:15.432Z,53.13
2018-02-07T03:36:18.668Z,51.70
2018-02-07T03:37:21.891Z,52.65
2018-02-07T03:38:25.110Z,50.28
2018-02-07T03:39:29.336Z,55.47
2018-02-07T03:40:32.562Z,51.53
2018-02-07T03:41:35.801Z,66.93
2018-02-07T03:42:39.820Z,49.95
2018-02-07T03:43:43.052Z,53.55
2018-02-07T03:44:46.272Z,50.12
2018-02-07T03:45:49.507Z,56.58
2018-02-07T03:46:52.750Z,48.60
2018-02-07T03:47:56.004Z,48.97
2018-02-07T03:48:59.999Z,50.25
2018-02-07T03:50:03.999Z,50.75
2018-02-07T03:51:08.015Z,55.33
2018-02-07T03:52:11.276Z,53.85
2018-02-07T03:53:15.306Z,51.58
2018-02-07T03:54:18.540Z,50.78
2018-02-07T03:55:21.774Z,50.60
2018-02-07T03:56:24.991Z,52.67
2018-02-07T03:57:28.213Z,56.63
2018-02-07T03:58:32.205Z,54.22
2018-02-07T03:59:35.515Z,53.80
2018-02-07T04:00:39.508Z,52.67
2018-02-07T04:01:43.482Z,56.88
2018-02-07T04:02:46.717Z,57.90
2018-02-07T04:03:49.932Z,54.10
2018-02-07T04:04:53.168Z,54.65
2018-02-07T04:05:56.407Z,56.75
2018-02-07T04:06:59.646Z,53.20
2018-02-07T04:08:02.906Z,59.53
2018-02-07T04:09:06.898Z,58.20
2018-02-07T04:10:10.918Z,49.80
2018-02-07T04:11:14.141Z,55.83
2018-02-07T04:12:17.434Z,55.92
2018-02-07T04:13:20.635Z,60.80
2018-02-07T04:14:23.874Z,53.60
2018-02-07T04:15:27.096Z,56.80
2018-02-07T04:16:31.092Z,55.75
2018-02-07T04:17:34.326Z,56.65
2018-02-07T04:18:37.553Z,54.78
2018-02-07T04:19:40.818Z,59.65
2018-02-07T04:20:44.016Z,58.33
2018-02-07T04:21:47.253Z,62.00
2018-02-07T04:22:50.470Z,58.80
2018-02-07T04:23:53.702Z,57.83
2018-02-07T04:24:56.929Z,56.88
2018-02-07T04:26:00.177Z,57.28
2018-02-07T04:27:03.401Z,57.95
2018-02-07T04:28:06.632Z,63.00
2018-02-07T04:29:10.635Z,55.00
2018-02-07T04:30:13.887Z,58.22
2018-02-07T04:31:17.112Z,55.30
2018-02-07T04:32:20.390Z,60.22
2018-02-07T04:33:23.673Z,61.00
2018-02-07T04:34:26.905Z,55.97
2018-02-07T04:35:30.124Z,61.00
2018-02-07T04:36:34.135Z,66.72
2018-02-07T04:37:37.444Z,56.90
2018-02-07T04:38:40.716Z,65.55
2018-02-07T04:39:43.922Z,58.38
2018-02-07T04:40:47.167Z,63.53
2018-02-07T04:41:50.389Z,54.33
2018-02-07T04:42:53.620Z,58.60
2018-02-07T04:43:56.842Z,59.78
2018-02-07T04:45:00.084Z,65.43
2018-02-07T04:46:03.300Z,58.45
2018-02-07T04:47:06.523Z,64.93
2018-02-07T04:48:09.745Z,56.10
2018-02-07T04:49:12.973Z,61.00
2018-02-07T04:50:16.198Z,58.55
2018-02-07T04:51:20.204Z,58.15
2018-02-07T04:52:24.207Z,59.13
2018-02-07T04:53:27.428Z,62.17
2018-02-07T04:54:30.670Z,60.53
2018-02-07T04:55:34.672Z,62.33
2018-02-07T04:56:38.665Z,69.15
2018-02-07T04:57:42.677Z,57.60
2018-02-07T04:58:46.669Z,66.28
2018-02-07T04:59:49.888Z,57.72
2018-02-07T05:00:53.123Z,60.42
2018-02-07T05:01:56.364Z,62.15
2018-02-07T05:02:59.600Z,64.05
2018-02-07T05:04:03.628Z,60.20
2018-02-07T05:05:06.887Z,63.30
2018-02-07T05:06:10.884Z,63.95
2018-02-07T05:07:14.893Z,66.80
2018-02-07T05:08:18.898Z,62.08
2018-02-07T05:09:22.900Z,61.55
2018-02-07T05:10:26.123Z,59.60
2018-02-07T05:11:29.362Z,58.55
2018-02-07T05:12:33.370Z,62.95
2018-02-07T05:13:36.593Z,60.08
2018-02-07T05:14:39.827Z,59.00
2018-02-07T05:15:43.798Z,63.92
2018-02-07T05:16:47.126Z,58.53
2018-02-07T05:17:50.361Z,61.37
2018-02-07T05:18:53.597Z,62.60
2018-02-07T05:19:56.820Z,67.72
2018-02-07T05:21:00.050Z,58.80
2018-02-07T05:22:04.059Z,65.50
2018-02-07T05:23:07.295Z,67.43
2018-02-07T05:24:10.523Z,71.62
2018-02-07T05:25:13.766Z,64.37
2018-02-07T05:26:16.985Z,62.05
2018-02-07T05:27:20.228Z,65.25
2018-02-07T05:28:23.452Z,63.92
2018-02-07T05:29:26.671Z,65.65
2018-02-07T05:30:29.926Z,63.50
2018-02-07T05:31:33.152Z,59.45
2018-02-07T05:32:36.382Z,60.30
2018-02-07T05:33:39.616Z,65.53
2018-02-07T05:34:42.843Z,60.22
2018-02-07T05:35:46.056Z,66.37
2018-02-07T05:36:49.284Z,66.45
2018-02-07T05:37:52.514Z,67.75
2018-02-07T05:38:55.738Z,64.35
2018-02-07T05:39:59.056Z,66.40
2018-02-07T05:41:02.333Z,67.15
2018-02-07T05:42:06.337Z,59.70
2018-02-07T05:43:10.336Z,65.43
2018-02-07T05:44:14.332Z,66.82
2018-02-07T05:45:17.551Z,62.88
2018-02-07T05:46:20.779Z,60.70
2018-02-07T05:47:24.784Z,66.12
2018-02-07T05:48:27.998Z,68.60
2018-02-07T05:49:31.229Z,69.20
2018-02-07T05:50:34.460Z,64.53
2018-02-07T05:51:37.686Z,64.20
2018-02-07T05:52:40.928Z,65.47
2018-02-07T05:53:44.167Z,61.37
2018-02-07T05:54:47.390Z,70.93
2018-02-07T05:55:50.608Z,70.43
2018-02-07T05:56:53.829Z,66.55
2018-02-07T05:57:57.053Z,62.22
2018-02-07T05:59:00.282Z,65.95
2018-02-07T06:00:03.505Z,70.65
2018-02-07T06:01:06.729Z,62.20
2018-02-07T06:02:09.968Z,63.55
2018-02-07T06:03:13.203Z,68.25
2018-02-07T06:04:16.431Z,68.35
2018-02-07T06:05:19.662Z,62.30
2018-02-07T06:06:22.937Z,72.32
2018-02-07T06:07:26.214Z,66.45
2018-02-07T06:08:30.185Z,66.97
2018-02-07T06:09:34.195Z,70.72
2018-02-07T06:10:37.424Z,57.62
2018-02-07T06:11:40.637Z,65.55
2018-02-07T06:12:44.639Z,65.97
2018-02-07T06:13:48.641Z,63.67
2018-02-07T06:14:52.646Z,66.18
2018-02-07T06:15:56.638Z,63.35
2018-02-07T06:17:00.617Z,69.78
2018-02-07T06:18:04.605Z,73.30
2018-02-07T06:19:07.844Z,67.62
2018-02-07T06:20:11.080Z,65.97
2018-02-07T06:21:14.303Z,68.12
2018-02-07T06:22:17.523Z,66.87
2018-02-07T06:23:20.748Z,64.65
2018-02-07T06:24:24.748Z,60.72
2018-02-07T06:25:28.749Z,68.80
2018-02-07T06:26:32.822Z,62.97
2018-02-07T06:27:36.080Z,65.55
2018-02-07T06:28:39.353Z,63.30
2018-02-07T06:29:42.593Z,61.15
2018-02-07T06:30:46.599Z,59.55
2018-02-07T06:31:50.598Z,68.97
2018-02-07T06:32:54.584Z,58.10
2018-02-07T06:33:57.816Z,63.95
2018-02-07T06:35:01.037Z,65.30
2018-02-07T06:36:04.272Z,63.97
2018-02-07T06:37:08.268Z,64.80
2018-02-07T06:38:11.507Z,67.80
2018-02-07T06:39:14.740Z,64.45
2018-02-07T06:40:17.975Z,65.60
2018-02-07T06:41:21.227Z,71.78
2018-02-07T06:42:24.510Z,66.35
2018-02-07T06:43:27.758Z,69.60
2018-02-07T06:44:31.801Z,63.75
2018-02-07T06:45:35.038Z,66.70
2018-02-07T06:46:39.037Z,62.13
2018-02-07T06:47:43.021Z,61.22
2018-02-07T06:48:46.250Z,60.85
2018-02-07T06:49:49.522Z,63.30
2018-02-07T06:50:52.805Z,63.30
2018-02-07T06:51:56.024Z,63.75
2018-02-07T06:52:59.259Z,60.88
2018-02-07T06:54:03.261Z,63.87
2018-02-07T06:55:07.269Z,62.28
2018-02-07T06:56:10.490Z,63.35
2018-02-07T06:57:13.716Z,60.97
2018-02-07T06:58:17.740Z,67.40
2018-02-07T06:59:21.758Z,64.55
2018-02-07T07:00:25.012Z,63.13
2018-02-07T07:01:28.243Z,64.20
2018-02-07T07:02:31.499Z,68.55
2018-02-07T07:03:34.720Z,58.55
2018-02-07T07:04:37.948Z,64.40
2018-02-07T07:05:42.079Z,62.40
2018-02-07T07:06:45.337Z,67.40
2018-02-07T07:07:48.560Z,67.45
2018-02-07T07:08:51.792Z,62.58
2018-02-07T07:09:55.821Z,60.75
2018-02-07T07:10:59.041Z,65.75
2018-02-07T07:12:02.270Z,63.50
2018-02-07T07:13:05.561Z,65.93
2018-02-07T07:14:08.803Z,69.40
2018-02-07T07:15:12.028Z,68.57
2018-02-07T07:16:15.267Z,76.47
2018-02-07T07:17:18.511Z,71.15
2018-02-07T07:18:21.783Z,73.32
2018-02-07T07:19:25.014Z,73.03
2018-02-07T07:20:28.250Z,74.70
2018-02-07T07:21:31.482Z,72.15
2018-02-07T07:22:34.726Z,74.30
2018-02-07T07:23:37.974Z,78.65
2018-02-07T07:24:41.235Z,72.78
2018-02-07T07:25:44.462Z,69.03
2018-02-07T07:26:47.700Z,74.35
2018-02-07T07:27:50.940Z,73.55
2018-02-07T07:28:54.201Z,76.47
2018-02-07T07:29:58.218Z,78.37
2018-02-07T07:31:01.436Z,69.43
2018-02-07T07:32:04.706Z,71.25
2018-02-07T07:33:07.944Z,76.55
2018-02-07T07:34:11.216Z,74.60
2018-02-07T07:35:14.464Z,70.18
2018-02-07T07:36:17.719Z,72.53
2018-02-07T07:37:20.953Z,74.45
2018-02-07T07:38:24.188Z,75.68
2018-02-07T07:39:27.482Z,78.47
2018-02-07T07:40:30.727Z,77.62
2018-02-07T07:41:34.751Z,75.10
2018-02-07T07:42:38.004Z,74.62
2018-02-07T07:43:45.987Z,74.72
2018-02-07T07:44:49.205Z,73.32
2018-02-07T07:45:52.441Z,77.95
2018-02-07T07:46:55.705Z,85.45
2018-02-07T07:47:58.920Z,78.28
2018-02-07T07:49:02.913Z,78.12
2018-02-07T07:50:06.227Z,75.70
2018-02-07T07:51:09.533Z,81.22
2018-02-07T07:52:12.954Z,82.93
2018-02-07T07:53:16.190Z,78.82
2018-02-07T07:54:19.420Z,80.28
2018-02-07T07:55:22.656Z,80.85
2018-02-07T07:56:25.920Z,80.50
2018-02-07T07:57:29.159Z,76.07
2018-02-07T07:58:32.362Z,75.07
2018-02-07T07:59:35.676Z,76.22
2018-02-07T08:00:39.667Z,73.10
2018-02-07T08:01:43.665Z,75.80
2018-02-07T08:02:47.650Z,79.05
2018-02-07T08:03:50.880Z,76.50
2018-02-07T08:04:54.113Z,75.10
2018-02-07T08:05:57.433Z,83.47
2018-02-07T08:07:00.772Z,79.75
2018-02-07T08:08:03.961Z,82.88
2018-02-07T08:09:07.173Z,79.32
2018-02-07T08:10:10.403Z,77.68
2018-02-07T08:11:13.628Z,78.90
2018-02-07T08:12:17.626Z,80.45
2018-02-07T08:13:21.605Z,74.90
2018-02-07T08:14:24.841Z,70.60
2018-02-07T08:15:28.100Z,72.97
2018-02-07T08:16:32.098Z,76.28
2018-02-07T08:17:36.088Z,76.43
2018-02-07T08:18:39.312Z,78.15
2018-02-07T08:19:42.538Z,79.00
2018-02-07T08:20:45.775Z,74.75
2018-02-07T08:21:49.015Z,70.05
2018-02-07T08:22:52.236Z,76.07
2018-02-07T08:23:55.446Z,79.25
2018-02-07T08:24:58.693Z,74.97
2018-02-07T08:26:01.909Z,77.95
2018-02-07T08:27:05.172Z,85.35
2018-02-07T08:28:08.600Z,76.25
2018-02-07T08:29:11.810Z,77.95
2018-02-07T08:30:15.793Z,84.75
2018-02-07T08:31:19.107Z,75.70
2018-02-07T08:32:23.092Z,81.45
2018-02-07T08:33:27.089Z,82.62
2018-02-07T08:34:31.078Z,76.35
2018-02-07T08:35:34.312Z,79.15
2018-02-07T08:36:37.533Z,74.75
2018-02-07T08:37:40.757Z,81.55
2018-02-07T08:38:43.983Z,75.72
2018-02-07T08:39:47.194Z,81.50
2018-02-07T08:40:50.443Z,75.10
2018-02-07T08:41:53.661Z,80.38
2018-02-07T08:42:57.659Z,78.20
2018-02-07T08:44:00.904Z,73.75
2018-02-07T08:45:04.129Z,78.12
2018-02-07T08:46:07.350Z,80.97
2018-02-07T08:47:10.572Z,72.15
2018-02-07T08:48:13.792Z,82.20
2018-02-07T08:49:17.824Z,82.37
2018-02-07T08:50:21.071Z,80.18
2018-02-07T08:51:25.056Z,78.35
2018-02-07T08:52:28.271Z,79.80
2018-02-07T08:53:31.541Z,72.70
2018-02-07T08:54:35.562Z,76.72
2018-02-07T08:55:38.781Z,81.65
2018-02-07T08:56:41.995Z,72.43
2018-02-07T08:57:45.985Z,71.80
2018-02-07T08:58:49.192Z,79.80
2018-02-07T08:59:53.182Z,75.62
2018-02-07T09:00:57.175Z,79.03
2018-02-07T09:02:00.401Z,76.82
2018-02-07T09:03:03.629Z,78.18
2018-02-07T09:04:06.848Z,82.50
2018-02-07T09:05:10.828Z,80.87
2018-02-07T09:06:14.824Z,78.65
2018-02-07T09:07:18.042Z,70.40
2018-02-07T09:08:21.256Z,71.60
2018-02-07T09:09:24.489Z,79.72
2018-02-07T09:10:28.478Z,77.28
2018-02-07T09:11:31.701Z,75.15
2018-02-07T09:12:34.934Z,76.93
2018-02-07T09:13:38.256Z,76.00
2018-02-07T09:14:41.537Z,79.82
2018-02-07T09:15:44.768Z,73.97
2018-02-07T09:16:47.996Z,85.45
2018-02-07T09:17:51.987Z,76.55
2018-02-07T09:18:55.967Z,78.50
2018-02-07T09:19:59.192Z,78.20
2018-02-07T09:21:02.619Z,72.07
2018-02-07T09:22:05.839Z,78.15
2018-02-07T09:23:09.894Z,79.00
2018-02-07T09:24:13.094Z,76.18
2018-02-07T09:25:16.315Z,75.57
2018-02-07T09:26:20.321Z,68.37
2018-02-07T09:27:23.559Z,77.43
2018-02-07T09:28:28.319Z,73.25
2018-02-07T09:29:32.308Z,75.95
2018-02-07T09:30:36.295Z,72.87
2018-02-07T09:31:39.508Z,74.10
2018-02-07T09:32:42.732Z,78.32
2018-02-07T09:33:45.971Z,78.57
2018-02-07T09:34:49.191Z,70.05
2018-02-07T09:35:52.432Z,74.80
2018-02-07T09:36:56.445Z,69.80
2018-02-07T09:37:59.671Z,74.47
2018-02-07T09:39:02.929Z,76.43
2018-02-07T09:40:06.144Z,83.35
2018-02-07T09:41:09.366Z,67.85
2018-02-07T09:42:12.702Z,77.47
2018-02-07T09:43:15.902Z,69.55
2018-02-07T09:44:19.120Z,74.53
2018-02-07T09:45:22.355Z,83.70
2018-02-07T09:46:25.593Z,82.85
2018-02-07T09:47:28.820Z,76.90
2018-02-07T09:48:32.062Z,74.78
2018-02-07T09:49:35.339Z,86.53
2018-02-07T09:50:38.574Z,75.50
2018-02-07T09:51:41.852Z,78.57
2018-02-07T09:52:45.790Z,74.55
2018-02-07T09:53:49.789Z,71.68
2018-02-07T09:54:53.773Z,68.97
2018-02-07T09:55:56.993Z,73.28
2018-02-07T09:57:00.214Z,77.90
2018-02-07T09:58:03.473Z,77.95
2018-02-07T09:59:06.697Z,74.65
2018-02-07T10:00:10.714Z,68.95
2018-02-07T10:01:13.972Z,72.90
2018-02-07T10:02:17.173Z,72.12
2018-02-07T10:03:21.166Z,70.05
2018-02-07T10:04:25.152Z,71.95
2018-02-07T10:05:28.384Z,74.03
2018-02-07T10:06:31.615Z,68.12
2018-02-07T10:07:34.868Z,68.82
2018-02-07T10:08:38.106Z,72.95
2018-02-07T10:09:42.100Z,71.07
2018-02-07T10:10:46.105Z,73.90
2018-02-07T10:11:50.089Z,71.53
2018-02-07T10:12:53.310Z,69.05
2018-02-07T10:13:56.541Z,72.45
2018-02-07T10:14:59.789Z,67.78
2018-02-07T10:16:03.017Z,73.00
2018-02-07T10:17:06.272Z,63.90
2018-02-07T10:18:09.505Z,72.80
2018-02-07T10:19:13.565Z,72.07
2018-02-07T10:20:16.746Z,66.68
2018-02-07T10:21:19.964Z,75.47
2018-02-07T10:22:24.081Z,67.82
2018-02-07T10:23:27.317Z,73.62
2018-02-07T10:24:30.523Z,72.80
2018-02-07T10:25:33.757Z,70.95
2018-02-07T10:26:37.007Z,74.82
2018-02-07T10:27:40.229Z,68.45
2018-02-07T10:28:43.454Z,67.70
2018-02-07T10:29:47.477Z,67.18
2018-02-07T10:30:51.485Z,78.55
2018-02-07T10:31:54.770Z,74.07
2018-02-07T10:32:57.998Z,70.22
2018-02-07T10:34:01.239Z,70.35
2018-02-07T10:35:04.525Z,75.18
2018-02-07T10:36:07.813Z,77.43
2018-02-07T10:37:11.059Z,76.30
2018-02-07T10:38:15.038Z,77.47
2018-02-07T10:39:18.281Z,71.30
2018-02-07T10:40:21.634Z,76.55
2018-02-07T10:41:25.649Z,73.45
2018-02-07T10:42:28.871Z,71.75
2018-02-07T10:43:32.131Z,75.25
2018-02-07T10:44:35.412Z,71.85
2018-02-07T10:45:38.707Z,69.65
2018-02-07T10:46:41.988Z,94.85
2018-02-07T10:47:45.226Z,87.47
2018-02-07T10:48:48.424Z,76.30
2018-02-07T10:49:52.427Z,70.75
2018-02-07T10:50:56.459Z,72.50
2018-02-07T10:51:59.758Z,70.80
2018-02-07T10:53:03.012Z,75.10
2018-02-07T10:54:06.249Z,77.85
2018-02-07T10:55:09.478Z,70.50
2018-02-07T10:56:12.734Z,69.55
2018-02-07T10:57:16.720Z,68.22
2018-02-07T10:58:19.965Z,74.87
2018-02-07T10:59:23.216Z,64.80
2018-02-07T11:00:27.208Z,71.93
2018-02-07T11:01:31.230Z,73.03
2018-02-07T11:02:34.441Z,67.43
2018-02-07T11:03:37.681Z,78.20
2018-02-07T11:04:41.690Z,72.97
2018-02-07T11:05:44.908Z,65.95
2018-02-07T11:06:48.137Z,70.07
2018-02-07T11:07:52.117Z,69.45
2018-02-07T11:08:55.353Z,71.50
2018-02-07T11:09:58.873Z,73.82
2018-02-07T11:11:02.179Z,66.40
2018-02-07T11:12:05.388Z,69.00
2018-02-07T11:13:08.628Z,65.55
2018-02-07T11:14:11.863Z,83.05
2018-02-07T11:15:15.089Z,69.47
2018-02-07T11:16:18.334Z,73.40
2018-02-07T11:17:21.556Z,67.45
2018-02-07T11:18:24.809Z,65.60
2018-02-07T11:19:28.021Z,66.53
2018-02-07T11:20:31.248Z,66.47
2018-02-07T11:21:34.463Z,71.80
2018-02-07T11:22:37.697Z,76.05
2018-02-07T11:23:41.676Z,65.87
2018-02-07T11:24:44.900Z,66.53
2018-02-07T11:25:48.124Z,65.40
2018-02-07T11:26:51.799Z,66.78
2018-02-07T11:27:55.029Z,70.62
2018-02-07T11:28:58.272Z,70.87
2018-02-07T11:30:01.465Z,73.03
2018-02-07T11:31:04.723Z,77.65
2018-02-07T11:32:09.085Z,80.32
2018-02-07T11:33:12.303Z,77.12
2018-02-07T11:34:15.511Z,67.43
2018-02-07T11:35:18.761Z,73.32
2018-02-07T11:36:22.839Z,73.10
2018-02-07T11:37:26.060Z,70.80
2018-02-07T11:38:29.299Z,71.80
2018-02-07T11:39:32.516Z,70.35
2018-02-07T11:40:35.800Z,77.07
2018-02-07T11:41:39.033Z,70.65
2018-02-07T11:42:42.328Z,74.35
2018-02-07T11:43:45.534Z,72.40
2018-02-07T11:44:49.552Z,76.20
2018-02-07T11:45:52.770Z,70.62
2018-02-07T11:46:56.008Z,75.72
2018-02-07T11:47:59.994Z,70.68
2018-02-07T11:49:03.988Z,68.18
2018-02-07T11:50:07.969Z,70.60
2018-02-07T11:51:12.091Z,68.45
2018-02-07T11:52:15.316Z,75.40
2018-02-07T11:53:18.584Z,75.95
2018-02-07T11:54:21.815Z,75.68
2018-02-07T11:55:25.110Z,79.97
2018-02-07T11:56:28.362Z,71.30
2018-02-07T11:57:31.583Z,72.75
2018-02-07T11:58:35.589Z,74.18
2018-02-07T11:59:38.896Z,74.93
2018-02-07T12:00:42.892Z,76.22
2018-02-07T12:01:46.879Z,78.95
2018-02-07T12:02:50.119Z,78.90
2018-02-07T12:03:53.352Z,74.40
2018-02-07T12:04:56.584Z,76.45
2018-02-07T12:05:59.807Z,76.30
2018-02-07T12:07:03.797Z,83.68
2018-02-07T12:08:07.822Z,76.45
2018-02-07T12:09:11.040Z,80.22
2018-02-07T12:10:15.043Z,72.62
2018-02-07T12:11:19.097Z,82.85
2018-02-07T12:12:22.339Z,74.65
2018-02-07T12:13:26.327Z,82.15
2018-02-07T12:14:30.321Z,89.68
2018-02-07T12:15:34.321Z,108.05
2018-02-07T12:16:37.538Z,94.87
2018-02-07T12:17:40.770Z,83.30
2018-02-07T12:18:44.005Z,82.18
2018-02-07T12:19:47.229Z,90.82
2018-02-07T12:20:50.449Z,69.03
2018-02-07T12:21:54.493Z,75.78
2018-02-07T12:22:57.652Z,73.47
2018-02-07T12:24:00.889Z,73.68
2018-02-07T12:25:04.128Z,70.22
2018-02-07T12:26:07.371Z,70.62
2018-02-07T12:27:10.585Z,82.25
2018-02-07T12:28:13.812Z,76.25
2018-02-07T12:29:17.068Z,74.80
2018-02-07T12:30:20.541Z,78.03
2018-02-07T12:31:23.784Z,75.97
2018-02-07T12:32:27.016Z,71.47
2018-02-07T12:33:30.250Z,77.05
2018-02-07T12:34:33.472Z,76.10
2018-02-07T12:35:36.698Z,74.37
2018-02-07T12:36:39.938Z,72.35
2018-02-07T12:37:43.155Z,72.57
2018-02-07T12:38:46.403Z,77.37
2018-02-07T12:39:49.643Z,75.45
2018-02-07T12:40:52.870Z,68.93
2018-02-07T12:41:56.107Z,78.82
2018-02-07T12:42:59.333Z,78.30
2018-02-07T12:44:02.606Z,80.40
2018-02-07T12:45:05.897Z,75.53
2018-02-07T12:46:09.088Z,73.78
2018-02-07T12:47:12.326Z,76.20
2018-02-07T12:48:15.572Z,77.65
2018-02-07T12:49:19.609Z,78.90
2018-02-07T12:50:22.850Z,71.87
2018-02-07T12:51:26.838Z,75.50
2018-02-07T12:52:30.056Z,71.68
2018-02-07T12:53:33.272Z,73.72
2018-02-07T12:54:36.494Z,74.37
2018-02-07T12:55:39.714Z,76.60
2018-02-07T12:56:42.945Z,74.80
2018-02-07T12:57:46.181Z,73.97
2018-02-07T12:58:49.440Z,85.57
2018-02-07T12:59:52.679Z,82.93
2018-02-07T13:00:55.903Z,75.53
2018-02-07T13:01:59.938Z,81.22
2018-02-07T13:03:03.156Z,79.62
2018-02-07T13:04:06.385Z,73.32
2018-02-07T13:05:09.621Z,74.85
2018-02-07T13:06:12.840Z,86.03
2018-02-07T13:07:16.146Z,77.70
2018-02-07T13:08:19.397Z,75.47
2018-02-07T13:09:23.377Z,81.32
2018-02-07T13:10:26.627Z,91.47
2018-02-07T13:11:29.843Z,83.47
2018-02-07T13:12:33.119Z,78.37
2018-02-07T13:13:36.347Z,86.82
2018-02-07T13:14:39.608Z,77.50
2018-02-07T13:15:43.606Z,78.10
2018-02-07T13:16:47.603Z,79.37
2018-02-07T13:17:50.811Z,84.82
2018-02-07T13:18:54.092Z,80.65
2018-02-07T13:19:57.319Z,90.28
2018-02-07T13:21:00.559Z,85.85
2018-02-07T13:22:03.860Z,78.97
2018-02-07T13:24:16.724Z,82.12
2018-02-07T13:25:20.770Z,86.47
2018-02-07T13:26:24.054Z,81.43
2018-02-07T13:27:27.321Z,78.53
2018-02-07T13:28:30.612Z,84.45
2018-02-07T13:29:33.855Z,81.65
2018-02-07T13:30:37.085Z,78.80
2018-02-07T13:31:40.309Z,82.10
2018-02-07T13:32:43.544Z,86.00
2018-02-07T13:33:46.878Z,82.22
2018-02-07T13:34:50.079Z,78.15
2018-02-07T13:35:53.292Z,79.65
2018-02-07T13:36:56.516Z,84.45
2018-02-07T13:37:59.761Z,77.55